Time;durP1;ratioP1;P1;durP2;ratioP2;P2;SDS_P1;SDS_P2;PMS_P1;PMS_P2;Temp;Humidity;BMP_temperature;BMP_pressure;BME280_temperature;BME280_humidity;BME280_pressure;Samples;Min_cycle;Max_cycle;Signal;HPM_P1;HPM_P2
2022/09/15 00:01:37;;;;;;;6.10;5.40;;;;;;;11.20;97.04;99723.91;4995807;28;20054;-78
2022/09/15 00:04:04;;;;;;;5.63;4.97;;;;;;;11.22;97.11;99736.00;4995672;28;20041;-78
2022/09/15 00:06:31;;;;;;;6.07;5.47;;;;;;;11.25;97.16;99735.63;5002609;28;20038;-78
2022/09/15 00:08:58;;;;;;;5.87;5.33;;;;;;;11.18;96.88;99716.09;5014346;28;20034;-76
2022/09/15 00:11:27;;;;;;;6.77;5.80;;;;;;;11.23;96.58;99726.19;5014027;28;20034;-78
2022/09/15 00:13:53;;;;;;;7.37;6.03;;;;;;;11.22;96.98;99724.53;5013271;28;20066;-77
2022/09/15 00:16:22;;;;;;;6.27;5.67;;;;;;;11.21;96.84;99718.38;5013426;28;20038;-76
2022/09/15 00:18:48;;;;;;;6.90;6.10;;;;;;;11.25;96.94;99729.47;5009786;28;20065;-77
2022/09/15 00:21:19;;;;;;;7.63;5.50;;;;;;;11.24;97.32;99723.31;4990059;28;20444;-77
2022/09/15 00:23:46;;;;;;;6.77;5.70;;;;;;;11.24;97.16;99717.97;5009421;28;20041;-76
2022/09/15 00:26:14;;;;;;;6.60;5.77;;;;;;;11.24;97.04;99710.00;5009312;28;20563;-76
2022/09/15 00:28:40;;;;;;;;;;;;;;;11.28;97.12;99713.94;5010365;28;20495;-76
2022/09/15 00:31:08;;;;;;;6.93;6.27;;;;;;;11.23;96.89;99711.00;5009791;28;19918;-76
2022/09/15 00:33:34;;;;;;;6.70;6.00;;;;;;;11.26;96.79;99715.94;5007001;28;20073;-77
2022/09/15 00:36:10;;;;;;;8.43;6.03;;;;;;;11.18;97.18;99714.25;4977880;28;20038;-77
2022/09/15 00:38:37;;;;;;;14.20;6.43;;;;;;;11.10;97.39;99709.06;4995486;28;20402;-77
2022/09/15 00:41:04;;;;;;;9.83;7.10;;;;;;;11.07;97.75;99712.13;4995094;28;20034;-77
2022/09/15 00:43:59;;;;;;;10.20;6.90;;;;;;;11.10;98.23;99710.91;4995277;28;20096;-76
2022/09/15 00:46:30;;;;;;;7.77;6.27;;;;;;;10.87;97.74;99679.13;4996189;28;20070;-78
2022/09/15 00:49:15;;;;;;;10.13;6.00;;;;;;;11.13;98.33;99713.19;4997789;28;20493;-75
2022/09/15 00:51:55;;;;;;;9.93;6.53;;;;;;;11.15;98.04;99708.47;4997380;28;20038;-78
2022/09/15 00:54:28;;;;;;;8.33;6.40;;;;;;;11.08;97.89;99696.97;4995081;28;20368;-78
2022/09/15 00:56:57;;;;;;;6.90;6.20;;;;;;;11.04;98.17;99699.19;4994575;28;20539;-78
2022/09/15 00:59:26;;;;;;;7.60;6.03;;;;;;;10.93;98.33;99694.34;4994517;28;20035;-77
2022/09/15 01:01:59;;;;;;;8.13;6.17;;;;;;;10.90;98.63;99691.25;4994538;28;20026;-77
2022/09/15 01:04:25;;;;;;;8.10;6.20;;;;;;;10.87;98.40;99679.13;4994533;28;20132;-77
2022/09/15 01:06:59;;;;;;;8.20;5.83;;;;;;;10.91;98.74;99690.22;4994326;28;20064;-77
2022/09/15 01:09:40;;;;;;;9.23;6.57;;;;;;;10.89;98.81;99682.44;4994286;28;20097;-76
2022/09/15 01:12:06;;;;;;;7.77;6.00;;;;;;;10.88;98.90;99672.78;4994200;28;20502;-77
2022/09/15 01:14:32;;;;;;;10.43;6.30;;;;;;;10.93;98.90;99678.38;4993805;28;20052;-77
2022/09/15 01:17:33;;;;;;;7.87;6.03;;;;;;;10.99;98.97;99680.28;4993904;28;20112;-78
2022/09/15 01:20:32;;;;;;;6.10;5.50;;;;;;;10.98;98.61;99678.59;4990510;28;20042;-77
2022/09/15 01:23:16;;;;;;;5.93;5.33;;;;;;;10.97;98.68;99676.13;4978974;28;20499;-76
2022/09/15 01:26:12;;;;;;;13.47;6.43;;;;;;;10.91;98.43;99680.41;4997012;28;20034;-77
2022/09/15 01:29:15;;;;;;;5.97;5.33;;;;;;;10.93;98.84;99683.69;4994545;28;20133;-77
2022/09/15 01:34:54;;;;;;;7.03;5.60;;;;;;;11.01;98.03;99680.09;4994341;28;20042;-77
2022/09/15 01:37:27;;;;;;;7.13;5.78;;;;;;;11.03;98.13;99675.41;4994308;28;20050;-77
2022/09/15 01:39:55;;;;;;;11.70;5.90;;;;;;;11.04;97.59;99671.72;4993802;28;20129;-77
2022/09/15 01:42:23;;;;;;;6.97;5.50;;;;;;;11.06;97.64;99678.50;4993653;28;20034;-77
2022/09/15 01:44:56;;;;;;;6.90;6.22;;;;;;;11.00;97.42;99673.13;4993541;28;20042;-76
2022/09/15 01:47:26;;;;;;;9.03;5.83;;;;;;;10.94;97.74;99674.69;4993463;28;20515;-77
2022/09/15 01:50:08;;;;;;;7.40;5.40;;;;;;;10.99;97.92;99666.13;4993623;28;20066;-76
2022/09/15 01:52:34;;;;;;;6.20;5.60;;;;;;;10.93;97.68;99654.38;4993354;28;20497;-77
2022/09/15 01:55:06;;;;;;;7.60;5.90;;;;;;;10.94;97.72;99663.19;4993457;28;20041;-77
2022/09/15 01:57:32;;;;;;;6.10;5.50;;;;;;;10.96;97.97;99661.16;4995180;28;20081;-77
2022/09/15 01:59:58;;;;;;;8.17;6.20;;;;;;;10.92;98.10;99651.91;4993486;28;20066;-76
2022/09/15 02:02:54;;;;;;;6.83;6.13;;;;;;;11.00;97.75;99654.47;4993428;28;20048;-76
2022/09/15 02:05:34;;;;;;;6.63;5.97;;;;;;;10.93;98.07;99648.25;4985979;28;20076;-76
2022/09/15 02:08:24;;;;;;;6.70;5.73;;;;;;;10.89;98.41;99644.31;4993900;28;20441;-75
2022/09/15 02:11:14;;;;;;;6.57;5.47;;;;;;;10.93;98.28;99650.91;5016345;28;20122;-77
2022/09/15 02:13:44;;;;;;;8.37;6.40;;;;;;;10.96;98.41;99646.00;5017393;28;20030;-76
2022/09/15 02:16:23;;;;;;;7.10;6.37;;;;;;;10.96;97.77;99645.19;5017691;28;20046;-76
2022/09/15 02:18:57;;;;;;;7.93;6.73;;;;;;;10.96;97.92;99645.19;5016960;28;20057;-76
2022/09/15 02:21:32;;;;;;;8.77;6.97;;;;;;;10.94;98.29;99641.88;5008289;28;20038;-77
2022/09/15 02:24:05;;;;;;;10.20;7.53;;;;;;;10.93;98.41;99640.25;4995358;28;20022;-77
2022/09/15 02:26:34;;;;;;;8.77;7.50;;;;;;;10.91;98.30;99629.78;5012761;28;20052;-77
2022/09/15 02:29:05;;;;;;;9.10;7.37;;;;;;;10.94;98.57;99632.06;4994367;28;20502;-77
2022/09/15 02:31:34;;;;;;;7.07;6.37;;;;;;;10.90;98.76;99628.13;5011126;28;20038;-76
2022/09/15 02:34:06;;;;;;;7.28;6.47;;;;;;;10.92;98.49;99623.44;5010247;28;20041;-76
2022/09/15 02:36:32;;;;;;;10.20;6.97;;;;;;;10.95;99.05;99627.56;4999763;28;20038;-76
2022/09/15 02:39:07;;;;;;;8.07;6.07;;;;;;;10.94;98.68;99618.75;4999290;28;20046;-76
2022/09/15 02:41:34;;;;;;;6.83;6.23;;;;;;;10.90;98.41;99609.50;4996586;28;20224;-76
2022/09/15 02:44:00;;;;;;;8.20;6.50;;;;;;;10.80;98.91;99609.00;4992460;28;20042;-77
2022/09/15 02:46:26;;;;;;;6.40;5.80;;;;;;;10.92;99.03;99611.97;4992500;28;20105;-77
2022/09/15 02:48:52;;;;;;;6.83;6.13;;;;;;;11.00;99.13;99611.84;4975254;28;20034;-77
2022/09/15 02:51:17;;;;;;;6.60;5.83;;;;;;;10.99;98.60;99604.88;4975856;28;20037;-78
2022/09/15 02:53:44;;;;;;;7.47;6.03;;;;;;;10.99;98.78;99599.53;4993651;28;20038;-77
2022/09/15 02:56:10;;;;;;;7.67;6.37;;;;;;;11.00;98.62;99615.34;4992907;28;20116;-78
2022/09/15 02:58:35;;;;;;;7.73;5.93;;;;;;;10.94;98.41;99593.94;4995097;28;20069;-78
2022/09/15 03:01:06;;;;;;;7.60;5.70;;;;;;;11.00;98.66;99612.66;4979969;28;20039;-78
2022/09/15 03:03:33;;;;;;;9.20;6.13;;;;;;;11.00;99.19;99614.50;4979703;28;20041;-77
2022/09/15 03:06:15;;;;;;;8.17;6.40;;;;;;;10.95;98.95;99614.22;4978706;28;20050;-77
2022/09/15 03:08:57;;;;;;;8.80;6.60;;;;;;;10.87;98.92;99604.56;5001706;28;20078;-75
2022/09/15 03:11:25;;;;;;;9.00;6.83;;;;;;;10.80;99.09;99583.19;4993920;28;20031;-77
2022/09/15 03:14:03;;;;;;;8.35;7.53;;;;;;;10.76;98.84;99573.94;4981711;28;20490;-76
2022/09/15 03:16:30;;;;;;;9.80;6.33;;;;;;;10.97;98.65;99593.56;4985812;28;20079;-76
2022/09/15 03:18:58;;;;;;;8.93;6.20;;;;;;;11.03;98.39;99598.13;4977996;28;20130;-77
2022/09/15 03:21:26;;;;;;;9.03;6.23;;;;;;;11.10;98.52;99602.47;4977578;28;20386;-76
2022/09/15 03:23:51;;;;;;;7.63;6.23;;;;;;;11.11;97.82;99595.31;4976929;28;20062;-77
2022/09/15 03:26:17;;;;;;;8.90;6.37;;;;;;;11.13;98.18;99593.28;4977264;28;20442;-76
2022/09/15 03:28:42;;;;;;;9.43;7.50;;;;;;;11.11;97.87;99592.66;4977052;28;20049;-76
2022/09/15 03:31:09;;;;;;;8.23;7.13;;;;;;;11.14;97.76;99578.94;4977149;28;20038;-77
2022/09/15 03:33:35;;;;;;;9.10;6.73;;;;;;;11.11;97.86;99579.31;4979514;28;20091;-77
2022/09/15 03:36:01;;;;;;;10.77;7.13;;;;;;;10.78;98.43;99547.13;4982599;28;20041;-78
2022/09/15 03:38:27;;;;;;;8.33;6.83;;;;;;;10.93;98.84;99570.97;4977698;28;20030;-78
2022/09/15 03:41:07;;;;;;;8.27;6.63;;;;;;;10.92;99.19;99582.66;4976701;28;20375;-78
2022/09/15 03:43:33;;;;;;;7.27;6.50;;;;;;;10.89;99.34;99575.88;4976504;28;20502;-77
2022/09/15 03:45:59;;;;;;;8.83;6.93;;;;;;;10.84;99.43;99570.31;4976569;28;20027;-76
2022/09/15 03:48:27;;;;;;;7.57;6.87;;;;;;;10.79;99.59;99562.91;4976721;28;20114;-77
2022/09/15 03:50:52;;;;;;;13.60;7.27;;;;;;;10.79;99.77;99559.41;4976139;28;20062;-77
2022/09/15 03:53:19;;;;;;;8.87;7.43;;;;;;;10.85;100.00;99563.97;4975004;28;20561;-78
2022/09/15 03:55:45;;;;;;;8.83;7.70;;;;;;;10.80;99.81;99553.91;4977383;28;20103;-77
2022/09/15 03:58:12;;;;;;;10.70;7.50;;;;;;;10.86;100.00;99549.63;4977659;28;20039;-77
2022/09/15 04:00:37;;;;;;;7.63;6.70;;;;;;;10.82;99.61;99535.88;4986096;28;20122;-75
2022/09/15 04:03:03;;;;;;;8.73;7.83;;;;;;;10.80;100.00;99543.25;4976327;28;20160;-78
2022/09/15 04:05:29;;;;;;;10.00;7.40;;;;;;;10.88;99.96;99539.59;4983355;28;20072;-77
2022/09/15 04:07:55;;;;;;;9.87;7.03;;;;;;;10.92;99.42;99542.69;4995947;28;20042;-77
2022/09/15 04:10:23;;;;;;;9.67;6.83;;;;;;;11.04;99.93;99546.50;4994475;28;20042;-76
2022/09/15 04:12:51;;;;;;;9.82;8.45;;;;;;;11.12;99.46;99546.34;4997496;28;20030;-75
2022/09/15 04:15:17;;;;;;;8.35;7.55;;;;;;;11.15;98.49;99544.09;4996671;28;20045;-74
2022/09/15 04:17:43;;;;;;;9.90;8.53;;;;;;;11.18;98.57;99538.38;4995303;28;20038;-77
2022/09/15 04:20:09;;;;;;;10.50;7.33;;;;;;;11.22;98.59;99541.47;4995359;28;20478;-76
2022/09/15 04:22:34;;;;;;;10.60;9.50;;;;;;;11.27;98.38;99543.53;4995320;28;20034;-75
2022/09/15 04:25:00;;;;;;;8.30;7.50;;;;;;;11.21;98.30;99542.47;4995100;28;20417;-76
2022/09/15 04:27:25;;;;;;;8.53;7.10;;;;;;;11.25;98.76;99551.72;4995166;28;20116;-79
2022/09/15 04:29:51;;;;;;;7.70;6.93;;;;;;;11.26;98.63;99544.56;4995291;28;20050;-77
2022/09/15 04:32:17;;;;;;;11.43;7.37;;;;;;;11.30;98.35;99544.00;4994948;28;20034;-77
2022/09/15 04:34:43;;;;;;;8.57;7.60;;;;;;;11.33;98.13;99540.94;4994966;28;20061;-76
2022/09/15 04:37:09;;;;;;;12.87;7.07;;;;;;;11.36;98.33;99537.88;4995142;28;20497;-78
2022/09/15 04:39:34;;;;;;;9.70;7.90;;;;;;;11.37;97.63;99522.69;4995241;28;20084;-78
2022/09/15 04:42:03;;;;;;;10.30;7.33;;;;;;;11.45;97.96;99538.50;4994937;28;20409;-78
2022/09/15 04:44:29;;;;;;;9.90;7.40;;;;;;;11.44;97.65;99532.34;4978885;28;20034;-79
2022/09/15 04:46:55;;;;;;;8.53;7.53;;;;;;;11.37;97.43;99526.19;4977080;28;20200;-77
2022/09/15 04:49:32;;;;;;;11.30;7.17;;;;;;;11.41;97.76;99543.41;4994446;28;20035;-77
2022/09/15 04:52:07;;;;;;;8.50;7.47;;;;;;;11.40;97.55;99536.44;4995051;28;20046;-78
2022/09/15 04:54:33;;;;;;;10.53;7.70;;;;;;;11.38;97.84;99537.66;4977393;28;20043;-78
2022/09/15 04:56:59;;;;;;;9.93;7.53;;;;;;;11.34;98.15;99531.91;4995161;28;20131;-77
2022/09/15 04:59:24;;;;;;;11.03;7.67;;;;;;;11.40;97.95;99531.13;4994679;28;20085;-77
2022/09/15 05:01:54;;;;;;;9.70;7.90;;;;;;;11.37;98.03;99520.84;4994390;28;20038;-78
2022/09/15 05:04:20;;;;;;;10.07;7.17;;;;;;;11.36;97.62;99513.06;4994366;28;20096;-77
2022/09/15 05:06:46;;;;;;;8.20;7.00;;;;;;;11.41;97.92;99511.44;4994443;28;20433;-77
2022/09/15 05:09:13;;;;;;;8.10;7.13;;;;;;;11.45;97.86;99523.34;4994358;28;20038;-78
2022/09/15 05:11:39;;;;;;;9.07;6.53;;;;;;;11.43;97.43;99508.56;4976752;28;20425;-78
2022/09/15 05:14:05;;;;;;;9.00;6.63;;;;;;;11.35;97.46;99501.56;4994451;28;20069;-79
2022/09/15 05:16:30;;;;;;;10.23;7.63;;;;;;;11.42;97.98;99520.25;4994238;28;20089;-78
2022/09/15 05:19:03;;;;;;;7.83;6.83;;;;;;;11.42;97.89;99517.59;4993793;28;20448;-78
2022/09/15 05:21:35;;;;;;;8.57;6.87;;;;;;;11.32;98.26;99517.97;4994015;28;20050;-77
2022/09/15 05:24:03;;;;;;;7.30;6.60;;;;;;;11.36;98.53;99519.22;4993813;28;20478;-79
2022/09/15 05:26:29;;;;;;;8.63;7.53;;;;;;;11.35;98.62;99520.22;4993569;28;20097;-78
2022/09/15 05:28:56;;;;;;;8.63;6.63;;;;;;;11.39;98.56;99513.47;4993738;28;20493;-77
2022/09/15 05:31:30;;;;;;;7.23;6.50;;;;;;;11.26;99.06;99492.06;4994009;28;20088;-79
2022/09/15 05:34:05;;;;;;;8.10;7.30;;;;;;;11.43;98.25;99509.38;4994567;28;20058;-78
2022/09/15 05:36:31;;;;;;;8.07;7.27;;;;;;;11.47;97.96;99517.81;5015156;28;20110;-78
2022/09/15 05:38:57;;;;;;;10.97;7.80;;;;;;;11.36;98.00;99497.06;5016548;28;20060;-77
2022/09/15 05:41:24;;;;;;;16.23;6.70;;;;;;;11.39;98.72;99504.66;5009778;28;20030;-76
2022/09/15 05:43:50;;;;;;;9.63;7.50;;;;;;;11.43;98.75;99506.72;4978508;28;20030;-78
2022/09/15 05:46:19;;;;;;;9.53;7.40;;;;;;;11.19;98.69;99472.56;4993639;28;20049;-80
2022/09/15 05:48:45;;;;;;;8.93;7.53;;;;;;;11.37;98.43;99499.53;4993470;28;20034;-81
2022/09/15 05:51:11;;;;;;;10.50;7.53;;;;;;;11.31;98.39;99499.50;4993448;28;20034;-78
2022/09/15 05:53:37;;;;;;;8.83;7.40;;;;;;;11.28;98.89;99498.06;4992671;28;20109;-80
2022/09/15 05:56:12;;;;;;;8.97;8.07;;;;;;;11.30;99.59;99495.19;4992477;28;20488;-79
2022/09/15 05:58:39;;;;;;;10.70;7.77;;;;;;;11.33;98.81;99492.13;4993508;28;20046;-79
2022/09/15 06:01:10;;;;;;;15.77;7.83;;;;;;;11.53;98.83;99503.69;4994426;28;20034;-79
2022/09/15 06:03:42;;;;;;;13.03;8.17;;;;;;;11.42;98.57;99480.25;4994164;28;20037;-79
2022/09/15 06:06:34;;;;;;;8.50;7.30;;;;;;;11.60;98.55;99509.06;4991884;28;20112;-78
2022/09/15 06:09:00;;;;;;;10.93;8.67;;;;;;;11.48;99.05;99501.63;4975628;28;20046;-78
2022/09/15 06:11:28;;;;;;;11.17;7.87;;;;;;;11.34;100.00;99494.59;4993364;28;20084;-78
2022/09/15 06:13:54;;;;;;;15.07;9.90;;;;;;;11.41;100.00;99511.44;4991236;28;20464;-76
2022/09/15 06:16:22;;;;;;;9.90;8.17;;;;;;;11.39;100.00;99507.31;4992385;28;20085;-77
2022/09/15 06:18:49;;;;;;;10.65;8.18;;;;;;;11.37;100.00;99499.53;4992686;28;20478;-76
2022/09/15 06:21:20;;;;;;;12.07;8.37;;;;;;;11.41;100.00;99510.63;4992621;28;20046;-77
2022/09/15 06:23:52;;;;;;;12.23;8.70;;;;;;;11.38;100.00;99495.84;4993144;28;20409;-76
2022/09/15 06:26:35;;;;;;;11.53;8.13;;;;;;;11.37;100.00;99488.88;4992945;28;20073;-80
2022/09/15 06:29:03;;;;;;;13.93;7.57;;;;;;;11.46;100.00;99502.84;4992925;28;20137;-76
2022/09/15 06:31:30;;;;;;;11.32;8.20;;;;;;;11.51;99.58;99504.91;4992725;28;20096;-75
2022/09/15 06:33:57;;;;;;;11.50;8.07;;;;;;;11.54;100.00;99509.84;4974775;28;20064;-75
2022/09/15 06:36:25;;;;;;;12.07;7.40;;;;;;;11.57;99.76;99509.47;4992848;28;20035;-79
2022/09/15 06:38:51;;;;;;;15.75;8.35;;;;;;;11.56;99.76;99497.13;4992140;28;20045;-78
2022/09/15 06:41:17;;;;;;;10.20;7.63;;;;;;;11.61;99.29;99500.03;4993234;28;20045;-77
2022/09/15 06:43:43;;;;;;;11.77;8.40;;;;;;;11.54;99.63;99502.66;5001707;28;20034;-79
2022/09/15 06:46:15;;;;;;;10.57;7.73;;;;;;;11.60;99.53;99503.72;4999016;28;20039;-79
2022/09/15 06:48:41;;;;;;;8.43;7.43;;;;;;;11.66;98.86;99492.25;5013006;28;20128;-79
2022/09/15 07:08:13;;;;;;;11.47;5.90;;;;;;;12.05;97.13;99484.38;5170390;23;20480;-79
2022/09/15 07:10:42;;;;;;;11.10;6.47;;;;;;;12.24;96.24;99469.41;4993927;28;20081;-79
2022/09/15 07:13:08;;;;;;;7.50;6.13;;;;;;;12.33;95.22;99484.19;4992372;28;20088;-78
2022/09/15 07:15:34;;;;;;;9.93;8.43;;;;;;;12.34;95.23;99482.34;4992926;28;20470;-81
2022/09/15 07:18:02;;;;;;;10.77;6.32;;;;;;;12.26;95.31;99487.88;4975508;28;20409;-77
2022/09/15 07:20:27;;;;;;;6.80;6.10;;;;;;;12.15;95.51;99493.84;4975473;28;20042;-75
2022/09/15 07:22:53;;;;;;;7.27;6.30;;;;;;;12.15;96.00;99494.66;4975430;28;20124;-75
2022/09/15 07:25:19;;;;;;;8.87;6.30;;;;;;;12.05;96.22;99492.38;4992666;28;20045;-76
2022/09/15 07:27:44;;;;;;;8.00;5.50;;;;;;;11.95;96.71;99481.28;4975288;28;20037;-75
2022/09/15 07:30:10;;;;;;;8.87;5.77;;;;;;;11.94;96.92;99492.16;4992310;28;20129;-81
2022/09/15 07:32:36;;;;;;;12.30;5.70;;;;;;;11.84;97.02;99484.53;4992698;28;20038;-78
2022/09/15 07:35:02;;;;;;;7.47;4.93;;;;;;;11.88;97.04;99496.47;4992497;28;20089;-77
2022/09/15 07:37:28;;;;;;;5.57;4.93;;;;;;;11.78;97.33;99486.16;4992217;28;20043;-78
2022/09/15 07:39:53;;;;;;;5.97;4.77;;;;;;;11.83;97.53;99477.53;4992235;28;20513;-76
2022/09/15 07:42:19;;;;;;;6.33;5.37;;;;;;;11.92;97.41;99478.19;4992156;28;20038;-77
2022/09/15 07:44:44;;;;;;;6.70;5.33;;;;;;;12.04;97.38;99484.56;4994498;28;20069;-79
2022/09/15 07:47:10;;;;;;;6.77;5.40;;;;;;;12.13;96.83;99477.19;4995752;28;20034;-77
2022/09/15 07:49:35;;;;;;;8.33;4.60;;;;;;;12.16;96.20;99472.28;4995567;28;20066;-75
2022/09/15 07:52:01;;;;;;;6.07;5.03;;;;;;;12.23;96.22;99465.09;4995588;28;20046;-78
2022/09/15 07:54:26;;;;;;;7.43;4.70;;;;;;;12.36;95.98;99462.41;4978374;28;20041;-76
2022/09/15 07:56:52;;;;;;;7.03;5.30;;;;;;;12.56;95.68;99465.09;4995718;28;20034;-80
2022/09/15 07:59:20;;;;;;;6.47;5.27;;;;;;;12.69;94.57;99470.41;4995756;28;20108;-78
2022/09/15 08:01:45;;;;;;;6.60;4.30;;;;;;;12.78;94.27;99465.69;4979290;28;20042;-77
2022/09/15 08:04:11;;;;;;;5.57;4.30;;;;;;;12.86;92.59;99462.78;4996109;28;20045;-79
2022/09/15 08:06:36;;;;;;;4.93;3.90;;;;;;;13.03;92.53;99460.50;4995115;28;20588;-77
2022/09/15 08:09:03;;;;;;;5.77;4.17;;;;;;;13.01;91.54;99459.88;4995114;28;20096;-75
2022/09/15 17:02:38;;;;;;;13.83;9.30;;;;;;;11.78;100.00;99245.28;5013567;27;3310717;-79
2022/09/15 17:05:17;;;;;;;13.20;10.07;;;;;;;11.70;100.00;99226.81;5077450;28;20050;-77
2022/09/15 17:07:43;;;;;;;13.83;10.03;;;;;;;11.83;100.00;99236.66;5118936;28;20027;-79
2022/09/15 17:10:08;;;;;;;11.40;10.23;;;;;;;11.83;100.00;99234.81;5112980;28;20402;-75
2022/09/15 17:12:35;;;;;;;14.00;10.60;;;;;;;11.90;100.00;99232.16;5111047;28;20053;-73
2022/09/15 17:15:01;;;;;;;10.53;9.27;;;;;;;11.93;100.00;99232.53;5111135;28;20398;-76
2022/09/15 17:17:28;;;;;;;11.63;9.33;;;;;;;11.97;100.00;99233.75;5110168;28;20040;-79
2022/09/15 17:19:53;;;;;;;11.57;9.33;;;;;;;11.93;100.00;99216.53;5110011;28;20479;-76
2022/09/15 17:22:19;;;;;;;14.73;10.30;;;;;;;12.02;100.00;99225.13;5111950;28;20041;-76
2022/09/15 17:24:44;;;;;;;12.57;10.37;;;;;;;12.08;100.00;99235.78;5119384;28;20091;-76
2022/09/15 17:27:10;;;;;;;11.00;8.77;;;;;;;12.17;100.00;99240.91;5123890;28;20039;-76
2022/09/15 17:29:35;;;;;;;10.60;8.83;;;;;;;12.18;100.00;99242.56;5119630;28;20031;-76
2022/09/15 17:32:01;;;;;;;11.60;9.67;;;;;;;12.17;100.00;99243.59;5124201;28;20134;-78
2022/09/15 17:34:27;;;;;;;12.20;9.50;;;;;;;12.25;100.00;99243.34;5123937;28;20054;-79
2022/09/15 17:36:53;;;;;;;10.57;8.60;;;;;;;12.26;100.00;99240.47;5122186;28;20103;-77
2022/09/15 17:39:20;;;;;;;13.30;9.17;;;;;;;12.32;100.00;99241.47;5119325;28;20040;-77
2022/09/15 17:41:45;;;;;;;16.63;9.30;;;;;;;12.34;100.00;99242.06;5111955;28;20036;-77
2022/09/15 17:44:11;;;;;;;13.93;9.30;;;;;;;12.32;100.00;99230.78;5111409;28;20402;-76
2022/09/15 17:46:37;;;;;;;13.33;9.50;;;;;;;12.32;100.00;99220.09;5110792;28;20039;-79
2022/09/15 17:49:02;;;;;;;12.60;10.60;;;;;;;12.36;100.00;99221.31;5110237;28;20075;-74
2022/09/15 17:51:28;;;;;;;13.57;10.77;;;;;;;12.28;100.00;99213.56;5111735;28;20036;-78
2022/09/15 17:53:53;;;;;;;13.50;10.80;;;;;;;12.36;100.00;99221.31;5110598;28;20101;-78
2022/09/15 17:56:47;;;;;;;16.87;11.93;;;;;;;12.35;100.00;99227.69;5110763;28;20058;-78
2022/09/15 17:59:12;;;;;;;18.40;12.33;;;;;;;12.29;100.00;99223.19;5110224;28;20056;-75
2022/09/15 18:01:43;;;;;;;16.17;11.73;;;;;;;12.26;100.00;99215.63;5121790;28;20582;-74
2022/09/15 18:04:10;;;;;;;20.47;14.07;;;;;;;12.14;100.00;99196.75;5129997;28;20062;-74
2022/09/15 18:06:35;;;;;;;20.20;12.83;;;;;;;12.18;100.00;99199.84;5132232;28;20031;-76
2022/09/15 18:09:01;;;;;;;16.63;12.10;;;;;;;12.28;100.00;99210.88;5137027;28;20061;-75
2022/09/15 18:11:27;;;;;;;16.40;11.90;;;;;;;12.29;100.00;99209.84;5146773;28;20031;-74
2022/09/15 18:13:53;;;;;;;13.63;10.33;;;;;;;12.36;100.00;99210.63;5128072;28;20027;-75
2022/09/15 18:16:21;;;;;;;18.63;10.90;;;;;;;12.37;100.00;99209.59;5126283;28;20042;-75
2022/09/15 18:18:47;;;;;;;11.40;9.35;;;;;;;12.37;100.00;99206.94;5128449;28;20039;-75
2022/09/15 18:21:27;;;;;;;13.93;9.17;;;;;;;12.38;100.00;99203.25;5127369;28;20085;-77
2022/09/15 18:23:54;;;;;;;14.40;9.50;;;;;;;12.39;100.00;99204.88;5117181;28;20085;-77
2022/09/15 18:26:23;;;;;;;17.97;10.80;;;;;;;12.41;100.00;99197.47;5122015;28;20031;-75
2022/09/15 18:28:49;;;;;;;13.27;10.50;;;;;;;12.40;100.00;99187.81;5129089;28;20063;-75
2022/09/15 18:31:14;;;;;;;12.53;8.60;;;;;;;12.44;100.00;99189.06;5130284;28;20043;-74
2022/09/15 18:33:40;;;;;;;13.33;9.33;;;;;;;12.46;100.00;99179.00;5132768;28;20024;-75
2022/09/15 18:36:06;;;;;;;13.37;8.20;;;;;;;12.51;100.00;99186.34;5132500;28;20067;-74
2022/09/15 18:38:31;;;;;;;13.70;8.30;;;;;;;12.53;100.00;99185.09;5129655;28;20496;-76
2022/09/15 18:40:57;;;;;;;10.57;7.60;;;;;;;12.55;100.00;99183.03;5116556;28;20031;-76
2022/09/15 18:43:25;;;;;;;13.10;7.63;;;;;;;12.55;100.00;99179.56;5115596;28;20490;-74
2022/09/15 18:45:53;;;;;;;12.73;7.57;;;;;;;12.52;100.00;99167.44;5097398;28;20093;-76
2022/09/15 18:48:21;;;;;;;7.57;6.55;;;;;;;12.56;100.00;99165.97;5115023;28;20074;-75
2022/09/15 18:50:46;;;;;;;7.70;5.67;;;;;;;12.55;100.00;99175.03;5114969;28;20088;-74
2022/09/15 18:53:12;;;;;;;7.23;6.17;;;;;;;12.56;100.00;99170.50;5115616;28;20107;-76
2022/09/15 18:55:40;;;;;;;7.10;5.93;;;;;;;12.46;100.00;99157.63;5114944;28;20031;-76
2022/09/15 18:58:09;;;;;;;6.88;5.97;;;;;;;12.44;100.00;99132.19;5096347;28;20375;-75
2022/09/15 19:00:47;;;;;;;8.83;6.47;;;;;;;12.55;100.00;99167.00;5095993;28;20150;-76
2022/09/15 19:04:03;;;;;;;9.37;6.13;;;;;;;12.62;100.00;99162.44;5113734;28;20102;-77
2022/09/15 19:06:57;;;;;;;11.47;6.30;;;;;;;12.55;100.00;99174.22;5102142;28;20116;-79
2022/09/15 19:09:25;;;;;;;8.20;6.40;;;;;;;12.52;100.00;99161.28;5114602;28;20442;-76
2022/09/15 19:11:51;;;;;;;11.20;6.23;;;;;;;12.55;100.00;99175.03;5096540;28;20088;-76
2022/09/15 19:14:16;;;;;;;8.50;6.33;;;;;;;12.57;100.00;99174.81;5096137;28;20054;-76
2022/09/15 19:16:42;;;;;;;11.77;7.07;;;;;;;12.56;100.00;99174.00;5097538;28;20031;-76
2022/09/15 19:19:07;;;;;;;10.57;6.93;;;;;;;12.48;100.00;99160.91;5115067;28;20110;-78
2022/09/15 19:21:33;;;;;;;9.43;6.97;;;;;;;12.55;100.00;99174.22;5096382;28;20130;-77
2022/09/15 19:27:33;;;;;;;8.40;6.80;;;;;;;12.41;100.00;99146.75;5088117;28;20410;-77
2022/09/15 19:30:00;;;;;;;10.23;7.00;;;;;;;12.54;100.00;99162.72;5118926;28;20039;-76
2022/09/15 19:32:31;;;;;;;12.67;7.33;;;;;;;12.46;100.00;99146.94;5116117;28;20039;-75
2022/09/15 19:35:20;;;;;;;7.70;6.53;;;;;;;12.48;100.00;99139.53;5107620;28;20028;-75
2022/09/15 19:37:45;;;;;;;10.53;6.53;;;;;;;12.43;100.00;99135.84;5097350;28;20123;-77
2022/09/15 19:40:13;;;;;;;8.23;7.43;;;;;;;12.51;100.00;99159.66;5097570;28;20039;-76
2022/09/15 19:43:01;;;;;;;8.30;7.40;;;;;;;12.51;100.00;99155.13;5095634;28;20038;-76
2022/09/15 19:46:22;;;;;;;11.50;6.33;;;;;;;12.28;100.00;99114.78;5080869;28;20043;-76
2022/09/15 19:48:49;;;;;;;8.20;6.15;;;;;;;12.42;100.00;99151.06;5075726;28;20077;-75
2022/09/15 19:51:21;;;;;;;8.77;6.23;;;;;;;12.36;100.00;99151.91;5080004;28;20027;-79
2022/09/15 19:53:47;;;;;;;11.87;6.43;;;;;;;12.26;100.00;99136.38;5096498;28;20087;-77
2022/09/15 20:12:02;;;;;;;8.50;6.10;;;;;;;12.30;100.00;99129.56;5069610;28;20062;-78
2022/09/15 20:14:31;;;;;;;14.13;6.67;;;;;;;12.33;100.00;99125.66;5073717;28;20031;-76
2022/09/15 20:16:56;;;;;;;;;;;;;;;12.30;100.00;99131.41;5092511;28;20028;-76
2022/09/15 20:19:22;;;;;;;10.27;7.70;;;;;;;12.24;100.00;99124.25;5092716;28;19923;-75
2022/09/15 20:22:20;;;;;;;8.67;6.47;;;;;;;12.23;100.00;99120.78;5093785;28;20398;-74
2022/09/15 20:24:48;;;;;;;8.90;6.17;;;;;;;12.13;100.00;99098.22;5046989;28;20044;-77
2022/09/15 20:27:14;;;;;;;10.63;6.50;;;;;;;12.18;100.00;99111.78;5060415;28;20039;-76
2022/09/15 20:29:47;;;;;;;9.60;6.13;;;;;;;12.12;100.00;99101.94;5093761;28;20445;-76
2022/09/15 20:32:15;;;;;;;9.93;5.97;;;;;;;12.18;100.00;99106.44;5077245;28;20044;-74
2022/09/15 20:34:45;;;;;;;8.20;6.57;;;;;;;12.18;100.00;99098.44;5059372;28;20035;-77
2022/09/15 20:37:52;;;;;;;10.50;6.57;;;;;;;12.14;100.00;99097.19;5095174;28;20063;-76
2022/09/15 20:40:18;;;;;;;10.80;6.27;;;;;;;11.94;100.00;99067.97;4992046;28;20144;-80
2022/09/15 20:42:46;;;;;;;12.17;7.20;;;;;;;12.10;100.00;99094.97;4994662;28;20565;-77
2022/09/15 20:45:12;;;;;;;;;;;;;;;12.20;100.00;99091.03;4997645;28;20062;-75
2022/09/15 20:47:41;;;;;;;9.40;6.63;;;;;;;12.19;100.00;99086.72;5013641;28;20383;-75
2022/09/15 20:50:07;;;;;;;10.70;7.00;;;;;;;12.15;100.00;99074.84;5012461;28;20048;-75
2022/09/15 20:52:33;;;;;;;9.07;7.13;;;;;;;12.21;100.00;99073.97;5078078;28;20040;-76
2022/09/15 20:54:58;;;;;;;17.30;7.00;;;;;;;12.23;100.00;99077.25;5093731;28;20056;-77
2022/09/15 20:57:23;;;;;;;8.57;6.27;;;;;;;12.22;100.00;99094.31;5092615;28;20495;-75
2022/09/15 21:00:41;;;;;;;13.73;6.13;;;;;;;12.09;100.00;99063.97;5093019;28;20036;-77
2022/09/15 21:03:22;;;;;;;9.03;6.80;;;;;;;12.00;100.00;99053.75;5062766;28;20046;-76
2022/09/15 21:05:58;;;;;;;8.23;6.10;;;;;;;12.16;100.00;99077.28;5058364;28;20481;-74
2022/09/15 21:08:29;;;;;;;10.70;6.37;;;;;;;12.17;100.00;99078.94;5092480;28;20039;-76
2022/09/15 21:10:55;;;;;;;9.20;6.53;;;;;;;12.17;100.00;99067.44;5092163;28;20047;-77